Western Springs, IL (60558)

9:17 AM CST on February 13, 2016 (GMT -0600)
Ridgewood | | Change Station
CLOSE
Current Station
Personal Weather Station
Location: Western Springs, IL
Elevation: 655 ft
Nearby Weather Stations

Elev 655 ft 41.79 °N, 87.90 °W | Updated 2 minutes ago

Clear
Clear
9.3 °F
Feels Like 1 °F
N
4.5
Wind Variable Wind from East
Gusts 6.9 mph

Today
High -- | Low -- °F
--% Chance of Precip.
Yesterday
High -- | Low -- °F
Precip. -- in
Pressure 30.66 in
Visibility 10.0 miles
Clouds Few 2500 ft
Few 20000 ft
Windchill 1 °F
Dew Point -20 °F
Humidity 24%
Rainfall 0.00 in
Snow Depth Not available.
6:50 AM 5:21 PM
Waxing Crescent, 31% visible
METAR KMDW 131453Z 32010KT 10SM FEW025 FEW200 M13/M23 A3059 RMK AO2 SLP382 T11331233 51010
Pressure 30.66 in
Visibility 10.0 miles
Clouds Few 2500 ft
Few 20000 ft
Windchill 1 °F
Dew Point -20 °F
Humidity 24%
Rainfall 0.00 in
Snow Depth Not available.
6:50 AM 5:21 PM
Waxing Crescent, 31% visible
METAR KMDW 131453Z 32010KT 10SM FEW025 FEW200 M13/M23 A3059 RMK AO2 SLP382 T11331233 51010

10-Day Weather Forecast

Almanac

Astronomy

Feb. 13, 2016 Rise Set
Actual Time
Civil Twilight
Nautical Twilight
Astronomical Twilight
Moon
Length of Visible Light
Length of Day
Tomorrow will be .
, % of the Moon is Illuminated

Today's Extremes

State Highs State Lows

Community

WunderPhotos

Upload Photos

1,892,575 photos uploaded!

WunderBlog® & News

Nearby

Air Quality

  Air Quality AQ Index Pollutant
Not available.

Snow Depth

Station Depth Elevation

Earthquake Activity

City Distance Mag. Time & Date
Minimum magnitude displayed is 2.5.

Coastal Water Temperatures

Place Temperature

Stations

Nearby Weather Stations

Station Location Temp. Windchill Dew Point Humidity Wind Precip. Elev Updated Type
                   

Watches & Warnings

There are currently no watches in effect.